Time;durP1;ratioP1;P1;durP2;ratioP2;P2;SDS_P1;SDS_P2;PMS_P1;PMS_P2;Temp;Humidity;BMP_temperature;BMP_pressure;BME280_temperature;BME280_humidity;BME280_pressure;Samples;Min_cycle;Max_cycle;Signal;HPM_P1;HPM_P2
2021/06/30 00:02:14;;;;;;;14.27;8.32;;;;;;;;;;5087115;28;39950;-81
2021/06/30 00:04:49;;;;;;;16.45;8.15;;;;;;;;;;5109381;28;37386;-80
2021/06/30 00:07:15;;;;;;;12.43;7.35;;;;;;;;;;5092689;28;35774;-81
2021/06/30 00:09:42;;;;;;;13.18;7.40;;;;;;;;;;5097933;27;37971;-81
2021/06/30 00:12:09;;;;;;;14.32;7.88;;;;;;;;;;5093014;27;38542;-80
2021/06/30 00:14:36;;;;;;;13.57;8.23;;;;;;;;;;5087898;28;38627;-79
2021/06/30 00:17:04;;;;;;;15.73;7.68;;;;;;;;;;5114198;27;38793;-81
2021/06/30 00:19:46;;;;;;;19.58;7.70;;;;;;;;;;5097212;28;38946;-81
2021/06/30 00:22:18;;;;;;;18.42;8.45;;;;;;;;;;5108918;28;38838;-81
2021/06/30 00:24:45;;;;;;;14.97;8.17;;;;;;;;;;5097679;27;37965;-81
2021/06/30 00:27:11;;;;;;;17.42;8.43;;;;;;;;;;5092172;28;37235;-81
2021/06/30 00:29:38;;;;;;;15.63;8.55;;;;;;;;;;5104810;27;38482;-81
2021/06/30 00:32:07;;;;;;;9.75;6.65;;;;;;;;;;5084025;28;38740;-80
2021/06/30 00:34:38;;;;;;;17.08;8.10;;;;;;;;;;5086946;28;37371;-81
2021/06/30 00:37:07;;;;;;;17.27;7.65;;;;;;;;;;5092021;28;36996;-81
2021/06/30 00:39:35;;;;;;;13.77;7.45;;;;;;;;;;5102873;28;37984;-81
2021/06/30 00:42:07;;;;;;;11.38;6.40;;;;;;;;;;5103945;27;39881;-81
2021/06/30 00:44:34;;;;;;;11.60;6.90;;;;;;;;;;5092123;28;37786;-82
2021/06/30 00:47:01;;;;;;;14.50;7.03;;;;;;;;;;5106053;28;37098;-80
2021/06/30 00:49:27;;;;;;;10.82;6.95;;;;;;;;;;5091219;28;47226;-81
2021/06/30 00:51:56;;;;;;;10.55;6.05;;;;;;;;;;5092147;28;37781;-81
2021/06/30 00:54:22;;;;;;;10.05;6.20;;;;;;;;;;5094299;28;39170;-80
2021/06/30 00:56:49;;;;;;;8.48;6.25;;;;;;;;;;5110526;28;36701;-82
2021/06/30 00:59:15;;;;;;;11.68;6.57;;;;;;;;;;5092713;28;38324;-80
2021/06/30 01:01:42;;;;;;;10.40;6.13;;;;;;;;;;5199575;22;37513;-81
2021/06/30 01:04:10;;;;;;;9.48;5.60;;;;;;;;;;5110078;28;38694;-80
2021/06/30 01:06:36;;;;;;;8.93;5.82;;;;;;;;;;5127117;27;37429;-80
2021/06/30 01:09:04;;;;;;;10.00;5.10;;;;;;;;;;5125763;27;38887;-79
2021/06/30 01:11:30;;;;;;;9.70;5.97;;;;;;;;;;5110334;28;38916;-81
2021/06/30 01:13:57;;;;;;;6.40;5.13;;;;;;;;;;5131270;27;39333;-80
2021/06/30 01:16:23;;;;;;;7.68;5.28;;;;;;;;;;5110063;27;36082;-80
2021/06/30 01:18:50;;;;;;;10.90;5.90;;;;;;;;;;5126315;27;39691;-80
2021/06/30 01:21:16;;;;;;;7.88;5.30;;;;;;;;;;5102594;28;37577;-80
2021/06/30 01:23:44;;;;;;;12.38;6.63;;;;;;;;;;5102915;28;38237;-80
2021/06/30 01:26:11;;;;;;;11.32;5.85;;;;;;;;;;5123236;27;37037;-81
2021/06/30 01:28:38;;;;;;;12.90;6.35;;;;;;;;;;5120234;27;39336;-80
2021/06/30 01:31:07;;;;;;;9.07;6.35;;;;;;;;;;5103884;27;37441;-80
2021/06/30 01:33:34;;;;;;;9.88;6.47;;;;;;;;;;5109738;28;38483;-80
2021/06/30 01:36:01;;;;;;;8.73;6.10;;;;;;;;;;5112331;27;35586;-80
2021/06/30 01:38:29;;;;;;;15.95;7.40;;;;;;;;;;5117864;28;48331;-80
2021/06/30 01:40:57;;;;;;;9.00;7.35;;;;;;;;;;5096352;28;37816;-79
2021/06/30 01:43:24;;;;;;;10.93;7.32;;;;;;;;;;5117127;27;37527;-80
2021/06/30 01:45:55;;;;;;;12.63;7.28;;;;;;;;;;5111539;27;35653;-80
2021/06/30 01:48:22;;;;;;;11.43;8.50;;;;;;;;;;5117059;27;39012;-79
2021/06/30 01:50:49;;;;;;;12.43;8.25;;;;;;;;;;5099899;27;39104;-80
2021/06/30 01:53:19;;;;;;;13.73;7.45;;;;;;;;;;5125913;27;38274;-80
2021/06/30 01:55:46;;;;;;;14.82;8.63;;;;;;;;;;5122814;27;37011;-79
2021/06/30 01:58:15;;;;;;;11.38;7.40;;;;;;;;;;5126370;27;39923;-80
2021/06/30 02:00:42;;;;;;;11.52;7.72;;;;;;;;;;5109972;27;37648;-80
2021/06/30 02:03:11;;;;;;;16.60;7.85;;;;;;;;;;5126341;27;36643;-80
2021/06/30 02:05:38;;;;;;;14.70;9.20;;;;;;;;;;5123450;27;36590;-81
2021/06/30 02:08:14;;;;;;;13.88;8.30;;;;;;;;;;5126702;27;38732;-81
2021/06/30 02:10:43;;;;;;;13.75;7.15;;;;;;;;;;5108180;27;38773;-81
2021/06/30 02:13:16;;;;;;;8.07;6.82;;;;;;;;;;5114856;27;38248;-82
2021/06/30 02:15:46;;;;;;;11.30;6.60;;;;;;;;;;5111836;27;38740;-81
2021/06/30 02:18:13;;;;;;;13.68;7.28;;;;;;;;;;5129679;27;38950;-81
2021/06/30 02:20:43;;;;;;;12.15;6.85;;;;;;;;;;5114833;27;38289;-81
2021/06/30 02:23:16;;;;;;;13.00;6.35;;;;;;;;;;5115992;27;38164;-81
2021/06/30 02:25:51;;;;;;;8.73;5.70;;;;;;;;;;5114739;27;37248;-81
2021/06/30 02:30:54;;;;;;;12.32;5.18;;;;;;;;;;5774082;22;20043;-81
2021/06/30 02:33:23;;;;;;;7.75;4.88;;;;;;;;;;5113296;27;38377;-83
2021/06/30 02:35:55;;;;;;;9.80;5.28;;;;;;;;;;5111370;27;38625;-81
2021/06/30 02:38:22;;;;;;;11.52;4.97;;;;;;;;;;5126493;27;38623;-80
2021/06/30 02:40:54;;;;;;;9.07;4.43;;;;;;;;;;5133009;27;39182;-80
2021/06/30 02:43:21;;;;;;;8.20;5.00;;;;;;;;;;5133622;27;39434;-80
2021/06/30 02:45:47;;;;;;;6.57;4.70;;;;;;;;;;5338454;22;38175;-80
2021/06/30 02:48:17;;;;;;;15.38;5.30;;;;;;;;;;5129684;27;40331;-81
2021/06/30 02:50:49;;;;;;;8.88;4.88;;;;;;;;;;5088911;27;38421;-81
2021/06/30 02:53:16;;;;;;;8.45;4.65;;;;;;;;;;5125975;27;38073;-79
2021/06/30 02:55:43;;;;;;;10.65;5.53;;;;;;;;;;5117307;27;36897;-81
2021/06/30 02:58:10;;;;;;;7.90;5.30;;;;;;;;;;5530068;22;39849;-82
2021/06/30 03:00:37;;;;;;;8.95;5.20;;;;;;;;;;5071787;28;38585;-82
2021/06/30 03:03:15;;;;;;;8.63;5.28;;;;;;;;;;5075116;28;38348;-82
2021/06/30 03:06:05;;;;;;;8.38;5.80;;;;;;;;;;5093973;28;37492;-81
2021/06/30 03:08:32;;;;;;;10.23;6.07;;;;;;;;;;5375955;22;48959;-80
2021/06/30 03:11:29;;;;;;;9.70;5.93;;;;;;;;;;5129623;27;39989;-81
2021/06/30 03:14:14;;;;;;;8.65;5.80;;;;;;;;;;5129403;27;48971;-81
2021/06/30 03:16:59;;;;;;;9.05;6.07;;;;;;;;;;5111047;27;48806;-81
2021/06/30 03:19:45;;;;;;;8.70;5.20;;;;;;;;;;5109056;27;39304;-81
2021/06/30 03:22:14;;;;;;;10.95;7.00;;;;;;;;;;5129071;27;38761;-81
2021/06/30 03:24:48;;;;;;;9.95;6.70;;;;;;;;;;5119339;27;37494;-80
2021/06/30 03:27:17;;;;;;;10.40;6.05;;;;;;;;;;5111215;28;35436;-81
2021/06/30 03:29:44;;;;;;;9.63;7.20;;;;;;;;;;5130935;28;39218;-81
2021/06/30 03:32:15;;;;;;;9.88;6.72;;;;;;;;;;5118153;27;40129;-81
2021/06/30 03:34:41;;;;;;;7.55;6.18;;;;;;;;;;5104109;28;39337;-80
2021/06/30 03:37:08;;;;;;;12.82;7.38;;;;;;;;;;5103703;28;36149;-81
2021/06/30 03:39:45;;;;;;;10.55;6.50;;;;;;;;;;5128631;28;42773;-80
2021/06/30 03:42:14;;;;;;;11.32;6.70;;;;;;;;;;5107223;28;39410;-80
2021/06/30 03:44:41;;;;;;;11.13;6.32;;;;;;;;;;5126973;27;38225;-80
2021/06/30 03:47:10;;;;;;;11.60;6.80;;;;;;;;;;5129488;27;37694;-81
2021/06/30 03:50:00;;;;;;;9.70;6.25;;;;;;;;;;5100146;27;39321;-80
2021/06/30 03:52:26;;;;;;;12.60;7.43;;;;;;;;;;5108410;27;38038;-80
2021/06/30 03:55:04;;;;;;;10.50;6.35;;;;;;;;;;5133419;27;38954;-80
2021/06/30 03:57:33;;;;;;;11.07;6.28;;;;;;;;;;5106040;27;48429;-80
2021/06/30 04:00:05;;;;;;;10.30;6.95;;;;;;;;;;5111334;27;41059;-81
2021/06/30 04:02:33;;;;;;;8.13;6.63;;;;;;;;;;5106613;27;38185;-80
2021/06/30 04:05:00;;;;;;;10.75;6.63;;;;;;;;;;5112924;27;38272;-81
2021/06/30 04:07:28;;;;;;;8.45;6.10;;;;;;;;;;5102754;27;37043;-80
2021/06/30 04:09:56;;;;;;;7.75;6.63;;;;;;;;;;5132846;27;39301;-81
2021/06/30 04:15:28;;;;;;;12.95;6.20;;;;;;;;;;5131109;27;49189;-81
2021/06/30 04:18:08;;;;;;;7.60;6.32;;;;;;;;;;5131937;27;37896;-80
2021/06/30 04:20:44;;;;;;;10.27;6.43;;;;;;;;;;5129950;27;48386;-82
2021/06/30 04:23:16;;;;;;;15.43;6.72;;;;;;;;;;5125353;27;39348;-81
2021/06/30 04:25:48;;;;;;;10.50;6.05;;;;;;;;;;5106515;27;38187;-81
2021/06/30 04:28:15;;;;;;;11.77;6.55;;;;;;;;;;5104846;27;37094;-81
2021/06/30 04:30:44;;;;;;;12.07;7.18;;;;;;;;;;5108299;28;38126;-80
2021/06/30 04:33:12;;;;;;;10.43;5.97;;;;;;;;;;5112664;27;39008;-81
2021/06/30 04:35:39;;;;;;;16.95;7.63;;;;;;;;;;5104560;28;38767;-80
2021/06/30 04:38:10;;;;;;;7.95;6.40;;;;;;;;;;5108921;28;36797;-80
2021/06/30 04:40:38;;;;;;;12.48;6.68;;;;;;;;;;5114604;28;39687;-80
2021/06/30 04:43:04;;;;;;;10.68;6.75;;;;;;;;;;5116156;27;39611;-80
2021/06/30 04:45:35;;;;;;;9.65;6.60;;;;;;;;;;5115962;27;38790;-80
2021/06/30 04:51:14;;;;;;;11.07;6.65;;;;;;;;;;5126002;27;40162;-81
2021/06/30 04:56:26;;;;;;;19.27;8.43;;;;;;;;;;6202190;22;20016;-81
2021/06/30 05:04:37;;;;;;;14.88;8.35;;;;;;;;;;5654288;22;20044;-82
2021/06/30 05:07:12;;;;;;;18.20;8.48;;;;;;;;;;5043530;28;39735;-82
2021/06/30 05:17:27;;;;;;;18.40;8.25;;;;;;;;;;5618995;22;19908;-82
2021/06/30 05:25:07;;;;;;;15.43;9.15;;;;;;;;;;5697724;22;20052;-81
2021/06/30 05:27:39;;;;;;;15.07;7.95;;;;;;;;;;5303068;22;38863;-80
2021/06/30 05:30:06;;;;;;;13.55;9.13;;;;;;;;;;5104786;27;35528;-81
2021/06/30 05:32:44;;;;;;;14.00;8.55;;;;;;;;;;5113954;27;48696;-81
2021/06/30 05:35:16;;;;;;;12.02;7.75;;;;;;;;;;5112607;27;38160;-82
2021/06/30 05:37:43;;;;;;;11.10;9.00;;;;;;;;;;5103728;27;38426;-81
2021/06/30 05:40:13;;;;;;;15.48;9.25;;;;;;;;;;5101807;27;36866;-82
2021/06/30 05:42:42;;;;;;;13.20;9.50;;;;;;;;;;5114064;27;39831;-81
2021/06/30 05:45:15;;;;;;;13.50;9.18;;;;;;;;;;5105432;27;38731;-82
2021/06/30 05:47:45;;;;;;;15.40;9.20;;;;;;;;;;5102440;28;38119;-81
2021/06/30 05:50:20;;;;;;;16.05;9.15;;;;;;;;;;5110120;27;37303;-81
2021/06/30 06:05:50;;;;;;;13.80;9.38;;;;;;;;;;5162736;22;20040;-82
2021/06/30 06:20:16;;;;;;;17.70;9.60;;;;;;;;;;5511743;22;19924;-80
2021/06/30 06:22:43;;;;;;;14.88;8.70;;;;;;;;;;5706345;22;48551;-81
2021/06/30 06:38:11;;;;;;;11.70;7.78;;;;;;;;;;6180687;22;20016;-84
2021/06/30 07:19:48;;;;;;;15.60;7.00;;;;;;;;;;6166314;22;20026;-82
2021/06/30 07:48:17;;;;;;;12.52;6.85;;;;;;;;;;5325626;22;20048;-81
2021/06/30 07:53:26;;;;;;;10.02;6.90;;;;;;;;;;5289921;22;20035;-82
2021/06/30 07:55:53;;;;;;;14.50;7.18;;;;;;;;;;5297166;22;37115;-81
2021/06/30 07:58:20;;;;;;;10.50;6.80;;;;;;;;;;5155173;22;39421;-83
2021/06/30 08:00:48;;;;;;;11.13;6.53;;;;;;;;;;5780619;22;38688;-82
2021/06/30 08:05:51;;;;;;;13.77;6.95;;;;;;;;;;5285084;22;20049;-81
2021/06/30 08:08:26;;;;;;;15.45;7.63;;;;;;;;;;5101335;27;39339;-82
2021/06/30 08:10:54;;;;;;;10.70;6.95;;;;;;;;;;5091694;27;38470;-82
2021/06/30 08:19:36;;;;;;;12.05;6.65;;;;;;;;;;6260160;22;21180;31
2021/06/30 08:22:10;;;;;;;12.40;7.30;;;;;;;;;;5029997;28;38056;-80
2021/06/30 08:25:04;;;;;;;13.30;7.05;;;;;;;;;;5021228;28;37770;-81
2021/06/30 08:27:31;;;;;;;9.63;6.53;;;;;;;;;;4995367;28;47734;-81
2021/06/30 08:30:00;;;;;;;11.73;6.57;;;;;;;;;;5035913;28;39835;-81
2021/06/30 08:32:28;;;;;;;9.00;5.47;;;;;;;;;;5032389;28;39452;-81
2021/06/30 08:35:01;;;;;;;13.27;5.63;;;;;;;;;;5014896;28;38344;-81
2021/06/30 08:37:28;;;;;;;12.70;5.63;;;;;;;;;;5011646;28;37753;-81
2021/06/30 08:39:58;;;;;;;6.20;4.57;;;;;;;;;;5019473;28;39292;-80
2021/06/30 08:42:26;;;;;;;7.68;4.35;;;;;;;;;;5032504;28;39004;-81
2021/06/30 08:44:53;;;;;;;6.95;3.90;;;;;;;;;;5033512;28;38054;-80
2021/06/30 08:47:26;;;;;;;7.90;3.70;;;;;;;;;;5004624;28;37318;-80
2021/06/30 08:49:55;;;;;;;5.45;3.85;;;;;;;;;;5021689;28;38833;-80
2021/06/30 08:52:22;;;;;;;8.13;3.92;;;;;;;;;;5010210;28;38574;-80
2021/06/30 08:54:51;;;;;;;7.10;4.43;;;;;;;;;;5015811;28;38682;-80
2021/06/30 08:57:19;;;;;;;6.20;3.60;;;;;;;;;;5040617;28;36900;-80
2021/06/30 08:59:45;;;;;;;6.80;4.43;;;;;;;;;;5008261;28;38264;-79
2021/06/30 09:02:12;;;;;;;8.45;4.10;;;;;;;;;;5009688;28;38695;-81
2021/06/30 09:04:59;;;;;;;10.65;4.10;;;;;;;;;;5017879;28;38645;-81
2021/06/30 09:07:26;;;;;;;6.82;4.25;;;;;;;;;;5011987;28;36241;-80
2021/06/30 09:09:53;;;;;;;6.65;4.13;;;;;;;;;;5017081;28;39376;-81
2021/06/30 09:12:36;;;;;;;7.35;3.40;;;;;;;;;;5009279;28;38537;-80
2021/06/30 09:15:15;;;;;;;5.78;3.25;;;;;;;;;;5014681;28;38099;-79
2021/06/30 09:17:42;;;;;;;4.90;3.00;;;;;;;;;;4994261;28;46963;-77
2021/06/30 09:20:08;;;;;;;4.55;3.50;;;;;;;;;;5013968;28;40656;-80
2021/06/30 09:22:40;;;;;;;6.70;4.38;;;;;;;;;;5019325;28;38111;-82
2021/06/30 09:25:08;;;;;;;6.43;3.92;;;;;;;;;;4999704;28;38184;-80
2021/06/30 09:27:43;;;;;;;6.63;3.83;;;;;;;;;;5010506;28;36342;-79
2021/06/30 09:30:11;;;;;;;4.47;3.45;;;;;;;;;;5019513;28;40978;-79
2021/06/30 09:33:00;;;;;;;4.35;2.78;;;;;;;;;;5022179;28;37637;-80
2021/06/30 09:35:28;;;;;;;4.95;2.92;;;;;;;;;;5018952;28;38175;-80
2021/06/30 09:37:56;;;;;;;5.97;2.80;;;;;;;;;;5009824;28;36722;-80
2021/06/30 09:40:40;;;;;;;4.20;2.83;;;;;;;;;;5007265;28;38083;-80
2021/06/30 09:43:21;;;;;;;3.78;2.72;;;;;;;;;;5011379;28;39439;-80
2021/06/30 09:45:48;;;;;;;4.47;3.10;;;;;;;;;;5005230;28;37904;-80
2021/06/30 09:48:26;;;;;;;7.32;3.00;;;;;;;;;;5028066;28;36550;-78
2021/06/30 09:50:52;;;;;;;5.25;2.40;;;;;;;;;;5006275;28;37436;-81
2021/06/30 09:53:31;;;;;;;3.92;2.30;;;;;;;;;;5012702;28;38715;-79
2021/06/30 09:56:13;;;;;;;7.38;2.95;;;;;;;;;;5015573;28;38642;-80
2021/06/30 09:58:39;;;;;;;3.92;2.30;;;;;;;;;;5006662;28;47721;-79
2021/06/30 10:01:16;;;;;;;2.33;2.03;;;;;;;;;;5028031;28;38324;-79
2021/06/30 10:03:46;;;;;;;3.53;1.75;;;;;;;;;;5012738;28;38740;-82
2021/06/30 10:06:33;;;;;;;2.95;1.75;;;;;;;;;;5020681;28;38834;-80
2021/06/30 10:09:01;;;;;;;2.65;1.60;;;;;;;;;;5002315;28;37327;-80
2021/06/30 10:11:29;;;;;;;2.50;1.35;;;;;;;;;;5016689;28;48334;-80
2021/06/30 10:13:56;;;;;;;2.35;1.35;;;;;;;;;;5009288;28;38593;-80
2021/06/30 10:16:23;;;;;;;2.80;1.40;;;;;;;;;;5008796;28;38271;-80
2021/06/30 10:18:51;;;;;;;2.55;1.40;;;;;;;;;;5022093;28;38085;-80
2021/06/30 10:21:19;;;;;;;2.10;1.30;;;;;;;;;;5008083;28;38071;-79
2021/06/30 10:23:46;;;;;;;2.90;1.45;;;;;;;;;;5007047;28;38889;-79
2021/06/30 10:26:15;;;;;;;1.70;1.30;;;;;;;;;;5014761;28;39965;-80
2021/06/30 10:28:41;;;;;;;3.65;1.60;;;;;;;;;;5002393;28;37044;-80
2021/06/30 10:31:08;;;;;;;1.55;1.27;;;;;;;;;;5019787;28;38574;-80
2021/06/30 10:33:38;;;;;;;1.92;1.40;;;;;;;;;;5013649;28;38499;-79
2021/06/30 10:36:07;;;;;;;3.03;1.40;;;;;;;;;;5015315;28;38132;-80
2021/06/30 10:38:52;;;;;;;1.95;1.40;;;;;;;;;;5009644;28;35730;-80
2021/06/30 10:41:38;;;;;;;3.22;1.70;;;;;;;;;;5007752;28;37864;-80
2021/06/30 10:44:24;;;;;;;2.65;1.38;;;;;;;;;;5015834;28;38383;-80
2021/06/30 10:46:52;;;;;;;3.22;1.75;;;;;;;;;;5000142;28;39467;-78
2021/06/30 10:49:23;;;;;;;2.63;1.58;;;;;;;;;;5010326;28;37682;-79
2021/06/30 10:51:54;;;;;;;4.38;1.40;;;;;;;;;;5004194;28;39561;-80
2021/06/30 10:54:47;;;;;;;4.25;1.48;;;;;;;;;;5003244;28;39005;-79
2021/06/30 10:57:19;;;;;;;3.08;1.17;;;;;;;;;;4992540;28;37888;-79
2021/06/30 11:00:05;;;;;;;2.53;1.17;;;;;;;;;;4997455;28;38076;-79
2021/06/30 11:02:33;;;;;;;2.80;1.40;;;;;;;;;;5017580;28;49180;-79
2021/06/30 11:05:15;;;;;;;6.05;1.50;;;;;;;;;;4998713;28;39264;-79
2021/06/30 11:07:42;;;;;;;1.85;0.75;;;;;;;;;;5010801;28;47285;-80
2021/06/30 11:10:20;;;;;;;1.70;0.90;;;;;;;;;;5014212;28;38147;-79
2021/06/30 11:12:53;;;;;;;2.30;1.00;;;;;;;;;;5014261;28;37806;-79
2021/06/30 11:15:38;;;;;;;2.55;1.23;;;;;;;;;;5009585;28;39239;-80
2021/06/30 11:18:04;;;;;;;2.38;1.08;;;;;;;;;;4993435;28;38705;-80
2021/06/30 11:20:44;;;;;;;1.10;1.00;;;;;;;;;;5013476;28;37650;-79
2021/06/30 11:23:17;;;;;;;1.95;1.20;;;;;;;;;;4993659;28;38265;-81
2021/06/30 11:25:44;;;;;;;2.25;0.88;;;;;;;;;;4982719;28;38375;-80
2021/06/30 11:28:29;;;;;;;2.10;1.33;;;;;;;;;;4981207;28;40438;-80
2021/06/30 11:30:55;;;;;;;1.10;1.10;;;;;;;;;;5004961;28;37323;-79
2021/06/30 11:33:23;;;;;;;3.03;1.10;;;;;;;;;;4988504;28;39816;-79
2021/06/30 11:35:49;;;;;;;3.15;1.08;;;;;;;;;;4980038;28;37728;-79
2021/06/30 11:38:23;;;;;;;2.22;1.70;;;;;;;;;;4977092;28;37725;-79
2021/06/30 11:41:00;;;;;;;2.58;1.88;;;;;;;;;;4980680;28;37431;-78
2021/06/30 11:43:32;;;;;;;2.63;2.08;;;;;;;;;;5002837;28;42023;-79
2021/06/30 11:46:01;;;;;;;2.85;2.20;;;;;;;;;;4986849;28;39192;-80
2021/06/30 11:48:28;;;;;;;2.85;1.90;;;;;;;;;;5010796;28;49348;-81
2021/06/30 11:51:05;;;;;;;2.78;2.10;;;;;;;;;;4976331;28;35883;-79
2021/06/30 11:53:32;;;;;;;4.78;2.13;;;;;;;;;;4988470;28;47295;-80
2021/06/30 11:55:58;;;;;;;6.35;2.85;;;;;;;;;;4989119;28;39641;-79
2021/06/30 11:58:45;;;;;;;3.22;2.20;;;;;;;;;;4977982;28;37569;-80
2021/06/30 12:01:15;;;;;;;2.72;2.05;;;;;;;;;;4984821;28;36071;-80
2021/06/30 12:03:42;;;;;;;2.72;1.88;;;;;;;;;;5008281;28;39548;-80
2021/06/30 12:06:30;;;;;;;4.53;2.03;;;;;;;;;;5011182;28;39143;-80
2021/06/30 12:09:08;;;;;;;6.05;2.00;;;;;;;;;;5003412;28;38408;-79
2021/06/30 12:11:36;;;;;;;5.68;1.92;;;;;;;;;;4992352;28;49768;-80
2021/06/30 12:14:06;;;;;;;3.45;2.08;;;;;;;;;;4983347;28;38916;-80
2021/06/30 12:16:43;;;;;;;4.13;2.10;;;;;;;;;;5009363;28;38711;-80
2021/06/30 12:19:15;;;;;;;3.10;2.03;;;;;;;;;;4994968;28;37391;-83
2021/06/30 12:21:43;;;;;;;3.88;2.55;;;;;;;;;;5002283;28;37142;-81
2021/06/30 12:24:17;;;;;;;6.30;2.47;;;;;;;;;;5016114;28;38873;-81
2021/06/30 12:27:00;;;;;;;8.68;3.30;;;;;;;;;;5010354;28;38544;-82
2021/06/30 12:29:27;;;;;;;3.30;2.70;;;;;;;;;;5028157;28;37889;-81
2021/06/30 12:31:54;;;;;;;4.68;2.92;;;;;;;;;;5019022;28;36788;-81
2021/06/30 12:34:21;;;;;;;5.45;2.92;;;;;;;;;;5010162;28;38702;-81
2021/06/30 12:36:47;;;;;;;4.72;2.92;;;;;;;;;;5013531;28;38126;-81
2021/06/30 12:42:06;;;;;;;5.30;2.55;;;;;;;;;;5072526;28;20052;-80
2021/06/30 12:44:51;;;;;;;7.15;2.47;;;;;;;;;;5069940;28;50090;-81
2021/06/30 12:47:18;;;;;;;4.80;2.47;;;;;;;;;;5055043;28;39037;-81
2021/06/30 12:49:56;;;;;;;3.65;2.00;;;;;;;;;;5055754;28;37792;-81
2021/06/30 12:52:23;;;;;;;6.43;2.83;;;;;;;;;;5065854;28;37201;-81
2021/06/30 12:54:55;;;;;;;7.25;2.58;;;;;;;;;;5072300;28;40167;-81
2021/06/30 12:57:22;;;;;;;4.95;3.25;;;;;;;;;;5060526;28;38526;-80
2021/06/30 13:00:06;;;;;;;5.53;2.40;;;;;;;;;;5048368;28;36931;-79
2021/06/30 13:02:32;;;;;;;11.70;3.33;;;;;;;;;;5057902;28;47664;-80
2021/06/30 13:04:58;;;;;;;5.18;2.72;;;;;;;;;;5066164;28;38928;-80
2021/06/30 13:07:41;;;;;;;5.90;2.60;;;;;;;;;;5054600;28;38862;-80
2021/06/30 13:10:20;;;;;;;5.50;2.75;;;;;;;;;;5037826;28;37316;-79
2021/06/30 13:12:46;;;;;;;4.20;2.33;;;;;;;;;;5051114;28;35498;-81
2021/06/30 13:15:25;;;;;;;3.35;2.20;;;;;;;;;;5061682;28;39943;-80
2021/06/30 13:17:52;;;;;;;4.53;1.75;;;;;;;;;;5043143;28;39054;-81
2021/06/30 13:20:20;;;;;;;2.65;2.22;;;;;;;;;;5060604;28;39482;-80
2021/06/30 13:22:47;;;;;;;7.25;3.05;;;;;;;;;;5064513;28;35543;-80
2021/06/30 13:25:31;;;;;;;5.80;3.42;;;;;;;;;;5043551;28;39017;-79
2021/06/30 13:28:55;;;;;;;5.25;2.78;;;;;;;;;;5059638;28;40655;-80
2021/06/30 13:36:31;;;;;;;7.03;2.80;;;;;;;;;;5053737;28;49720;-80
2021/06/30 13:38:58;;;;;;;5.78;2.45;;;;;;;;;;5052638;28;38882;-80
2021/06/30 13:41:24;;;;;;;4.63;3.30;;;;;;;;;;5051441;28;36911;-80
2021/06/30 13:43:53;;;;;;;5.45;3.17;;;;;;;;;;5058041;28;37515;-81
2021/06/30 13:46:20;;;;;;;6.75;3.20;;;;;;;;;;5034252;28;38414;-80
2021/06/30 13:48:49;;;;;;;8.77;4.65;;;;;;;;;;5057982;28;39653;-80
2021/06/30 13:51:20;;;;;;;9.20;4.15;;;;;;;;;;5046636;28;38911;-79
2021/06/30 13:53:46;;;;;;;9.70;4.28;;;;;;;;;;5048238;28;37170;-79
2021/06/30 13:56:13;;;;;;;6.78;4.38;;;;;;;;;;5027142;28;39389;-79
2021/06/30 13:58:40;;;;;;;10.05;4.45;;;;;;;;;;5023091;28;39199;-80
2021/06/30 14:01:07;;;;;;;8.13;4.00;;;;;;;;;;5051814;28;38276;-79
2021/06/30 14:03:33;;;;;;;6.13;3.67;;;;;;;;;;5027407;28;35973;-80
2021/06/30 14:06:00;;;;;;;6.72;3.55;;;;;;;;;;5041184;28;39290;-79
2021/06/30 14:08:26;;;;;;;8.32;4.03;;;;;;;;;;5042792;28;39534;-78
2021/06/30 14:10:55;;;;;;;9.40;3.45;;;;;;;;;;5026642;28;38235;-80
2021/06/30 14:13:22;;;;;;;7.60;3.75;;;;;;;;;;5044510;28;36623;-79
2021/06/30 14:15:48;;;;;;;10.45;4.72;;;;;;;;;;5044530;28;40800;-80
2021/06/30 14:18:15;;;;;;;6.68;4.00;;;;;;;;;;5048559;28;39153;-80
2021/06/30 14:20:42;;;;;;;8.48;4.40;;;;;;;;;;5046682;28;38954;-80
2021/06/30 14:23:11;;;;;;;6.72;4.20;;;;;;;;;;5047887;28;35862;-80
2021/06/30 14:25:37;;;;;;;8.27;4.45;;;;;;;;;;5037946;28;39837;-79
2021/06/30 14:28:04;;;;;;;8.15;4.55;;;;;;;;;;5038622;28;39871;-79
2021/06/30 14:30:31;;;;;;;11.55;5.13;;;;;;;;;;5052224;28;38220;-80
2021/06/30 14:32:58;;;;;;;13.77;5.45;;;;;;;;;;5035641;28;36933;-81
2021/06/30 14:35:24;;;;;;;7.40;4.50;;;;;;;;;;5031262;28;37411;-79
2021/06/30 14:37:51;;;;;;;8.18;4.30;;;;;;;;;;5046322;28;39581;-80
2021/06/30 14:40:18;;;;;;;5.82;4.00;;;;;;;;;;5038344;28;39037;-78
2021/06/30 14:42:45;;;;;;;10.82;3.80;;;;;;;;;;5031565;28;37058;-79
2021/06/30 14:45:12;;;;;;;6.78;3.70;;;;;;;;;;5023606;28;39485;-79
2021/06/30 14:47:39;;;;;;;6.93;4.13;;;;;;;;;;5052395;28;39950;-79
2021/06/30 14:50:06;;;;;;;8.25;3.78;;;;;;;;;;5045256;28;38972;-79
2021/06/30 14:52:32;;;;;;;8.93;4.60;;;;;;;;;;5039911;28;37524;-80
2021/06/30 14:54:58;;;;;;;7.25;4.13;;;;;;;;;;5052621;28;39186;-80
2021/06/30 14:57:25;;;;;;;9.20;3.97;;;;;;;;;;5032089;28;38913;-79
2021/06/30 14:59:52;;;;;;;4.18;3.03;;;;;;;;;;5031406;28;38926;-79
2021/06/30 15:02:18;;;;;;;9.10;3.92;;;;;;;;;;5049034;28;37153;-78
2021/06/30 15:04:44;;;;;;;8.35;4.10;;;;;;;;;;5050733;28;40433;-78
2021/06/30 15:07:11;;;;;;;10.73;4.10;;;;;;;;;;5055959;28;39851;-79
2021/06/30 15:09:37;;;;;;;8.15;3.47;;;;;;;;;;5061957;28;39185;-79
2021/06/30 15:12:04;;;;;;;6.85;2.90;;;;;;;;;;5060655;28;38415;-79
2021/06/30 15:14:31;;;;;;;7.88;3.33;;;;;;;;;;5051556;28;38231;-78
2021/06/30 15:16:57;;;;;;;6.72;3.22;;;;;;;;;;5051216;28;34369;-79
2021/06/30 15:19:24;;;;;;;8.27;3.35;;;;;;;;;;5038653;28;38580;-79
2021/06/30 15:21:51;;;;;;;8.07;3.22;;;;;;;;;;5049868;28;36950;-79
2021/06/30 15:24:19;;;;;;;8.52;3.33;;;;;;;;;;5052023;28;40149;-78
2021/06/30 15:26:45;;;;;;;7.75;2.95;;;;;;;;;;5032703;28;39318;-78
2021/06/30 15:29:12;;;;;;;9.30;3.22;;;;;;;;;;5029335;28;39852;-78
2021/06/30 15:31:39;;;;;;;5.95;2.95;;;;;;;;;;5030138;28;37009;-78
2021/06/30 15:34:06;;;;;;;6.82;3.17;;;;;;;;;;5049934;28;39115;-78
2021/06/30 15:36:33;;;;;;;6.75;3.00;;;;;;;;;;5045878;28;40109;-78
2021/06/30 15:39:00;;;;;;;6.90;2.97;;;;;;;;;;5044021;28;37388;-78
2021/06/30 15:41:27;;;;;;;5.55;3.08;;;;;;;;;;5034148;28;35951;-77
2021/06/30 15:43:53;;;;;;;6.20;3.00;;;;;;;;;;5045692;28;39015;-77
2021/06/30 15:46:20;;;;;;;6.25;3.17;;;;;;;;;;5044065;28;39177;-79
2021/06/30 15:48:46;;;;;;;6.25;3.28;;;;;;;;;;5045016;28;39234;-79
2021/06/30 15:51:14;;;;;;;9.85;4.57;;;;;;;;;;5027191;28;36300;-78
2021/06/30 15:53:40;;;;;;;6.65;3.42;;;;;;;;;;5047338;28;38592;-77
2021/06/30 15:56:07;;;;;;;7.03;3.72;;;;;;;;;;5042399;28;37623;-80
2021/06/30 15:58:34;;;;;;;5.68;3.42;;;;;;;;;;5034567;28;36931;-79
2021/06/30 16:01:00;;;;;;;4.63;2.83;;;;;;;;;;5047847;28;38127;-80
2021/06/30 16:03:33;;;;;;;6.95;3.47;;;;;;;;;;5032811;28;47309;-80
2021/06/30 16:06:01;;;;;;;4.30;2.92;;;;;;;;;;5043347;28;39313;-78
2021/06/30 16:08:27;;;;;;;4.30;3.33;;;;;;;;;;5030159;28;45728;-79
2021/06/30 16:10:54;;;;;;;5.07;2.95;;;;;;;;;;5028868;28;35671;-77
2021/06/30 16:13:20;;;;;;;4.65;3.72;;;;;;;;;;5025639;28;37540;-78
2021/06/30 16:15:47;;;;;;;4.85;3.75;;;;;;;;;;5047371;28;39075;-77
2021/06/30 16:18:13;;;;;;;4.68;3.33;;;;;;;;;;5047314;28;39852;-80
2021/06/30 16:20:44;;;;;;;4.80;3.58;;;;;;;;;;5034234;28;38190;-78
2021/06/30 16:23:11;;;;;;;7.43;3.58;;;;;;;;;;5045131;28;39796;-80
2021/06/30 16:25:37;;;;;;;4.15;3.50;;;;;;;;;;5067501;28;36924;-80
2021/06/30 16:28:05;;;;;;;5.28;3.60;;;;;;;;;;5079423;28;37979;-79
2021/06/30 16:30:32;;;;;;;4.40;3.95;;;;;;;;;;5068683;28;37527;-80
2021/06/30 16:33:00;;;;;;;6.85;4.45;;;;;;;;;;5072934;28;39216;-81
2021/06/30 16:35:27;;;;;;;4.13;3.72;;;;;;;;;;5069266;28;37741;-81
2021/06/30 16:37:54;;;;;;;7.63;4.35;;;;;;;;;;5088161;28;38437;-80
2021/06/30 16:40:21;;;;;;;7.03;4.63;;;;;;;;;;5112604;22;36732;-80
2021/06/30 16:42:50;;;;;;;7.05;5.60;;;;;;;;;;5109722;27;37549;-80
2021/06/30 16:45:16;;;;;;;8.00;5.45;;;;;;;;;;5096541;27;38496;-78
2021/06/30 16:48:02;;;;;;;9.30;6.45;;;;;;;;;;5113734;27;39606;-79
2021/06/30 16:50:29;;;;;;;7.88;5.57;;;;;;;;;;5089399;27;47813;-77
2021/06/30 16:55:59;;;;;;;10.27;6.85;;;;;;;;;;5229758;22;50613;-81
2021/06/30 16:58:26;;;;;;;11.40;7.60;;;;;;;;;;5078084;27;37358;-81
2021/06/30 17:00:52;;;;;;;9.98;7.53;;;;;;;;;;5067982;28;36826;-81
2021/06/30 17:03:20;;;;;;;12.88;7.72;;;;;;;;;;5061082;28;37863;-81
2021/06/30 17:05:49;;;;;;;9.57;6.93;;;;;;;;;;5068979;27;38762;-81
2021/06/30 17:08:16;;;;;;;13.90;8.65;;;;;;;;;;5086826;27;37969;-81
2021/06/30 17:10:43;;;;;;;13.00;7.05;;;;;;;;;;5070694;27;36696;-81
2021/06/30 17:13:12;;;;;;;11.40;6.78;;;;;;;;;;5073008;28;38993;-81
2021/06/30 17:15:41;;;;;;;14.32;7.20;;;;;;;;;;5057016;28;38649;-81
2021/06/30 17:18:09;;;;;;;17.40;7.70;;;;;;;;;;5375262;22;39387;-82
2021/06/30 17:20:50;;;;;;;13.00;6.43;;;;;;;;;;5149408;22;36263;-80
2021/06/30 17:23:17;;;;;;;12.88;7.00;;;;;;;;;;5418057;22;38582;-82
2021/06/30 17:25:57;;;;;;;13.88;6.80;;;;;;;;;;5240699;22;38110;-80
2021/06/30 17:28:24;;;;;;;16.40;7.97;;;;;;;;;;5189995;22;38085;-81
2021/06/30 17:30:55;;;;;;;12.70;6.40;;;;;;;;;;5080531;28;37586;-82
2021/06/30 17:33:23;;;;;;;12.70;6.45;;;;;;;;;;5086042;28;39337;-82